createdAt,value
2023-01-23T00:02:52.482Z,0.86
2023-01-23T00:06:03.844Z,0.81
2023-01-23T00:09:05.481Z,0.77
2023-01-23T00:12:07.282Z,0.74
2023-01-23T00:15:10.831Z,0.74
2023-01-23T00:18:12.394Z,0.75
2023-01-23T00:21:19.121Z,0.78
2023-01-23T00:24:20.676Z,0.78
2023-01-23T00:27:22.230Z,0.79
2023-01-23T00:30:23.789Z,0.78
2023-01-23T00:33:25.328Z,0.78
2023-01-23T00:36:38.653Z,0.74
2023-01-23T00:39:40.773Z,0.71
2023-01-23T00:42:42.295Z,0.66
2023-01-23T00:45:43.840Z,0.64
2023-01-23T00:48:45.848Z,0.63
2023-01-23T00:51:47.478Z,0.63
2023-01-23T00:54:49.046Z,0.63
2023-01-23T00:57:50.594Z,0.65
2023-01-23T01:00:52.215Z,0.67
2023-01-23T01:03:54.017Z,0.67
2023-01-23T01:06:55.588Z,0.70
2023-01-23T01:09:57.124Z,0.71
2023-01-23T01:13:01.006Z,0.71
2023-01-23T01:16:02.748Z,0.70
2023-01-23T01:19:05.228Z,0.68
2023-01-23T01:22:06.986Z,0.65
2023-01-23T01:25:08.945Z,0.64
2023-01-23T01:28:10.540Z,0.63
2023-01-23T01:31:14.369Z,0.58
2023-01-23T01:34:16.037Z,0.54
2023-01-23T01:37:17.577Z,0.49
2023-01-23T01:40:22.864Z,0.46
2023-01-23T01:43:26.759Z,0.44
2023-01-23T01:46:29.529Z,0.39
2023-01-23T01:49:33.526Z,0.37
2023-01-23T01:52:35.133Z,0.33
2023-01-23T01:55:37.786Z,0.32
2023-01-23T01:58:42.377Z,0.31
2023-01-23T02:01:47.214Z,0.33
2023-01-23T02:04:52.576Z,0.35
2023-01-23T02:08:00.182Z,0.37
2023-01-23T02:11:03.493Z,0.39
2023-01-23T02:14:05.070Z,0.39
2023-01-23T02:17:06.710Z,0.39
2023-01-23T02:20:17.839Z,0.39
2023-01-23T02:24:13.799Z,0.42
2023-01-23T02:27:15.379Z,0.44
2023-01-23T02:30:18.785Z,0.47
2023-01-23T02:33:20.496Z,0.50
2023-01-23T02:36:26.815Z,0.51
2023-01-23T02:39:28.652Z,0.53
2023-01-23T02:42:31.071Z,0.55
2023-01-23T02:45:33.753Z,0.56
2023-01-23T02:48:36.139Z,0.54
2023-01-23T02:51:37.784Z,0.53
2023-01-23T02:54:40.684Z,0.52
2023-01-23T02:57:42.252Z,0.50
2023-01-23T03:00:43.955Z,0.48
2023-01-23T03:03:45.677Z,0.46
2023-01-23T03:06:47.631Z,0.46
2023-01-23T03:09:49.900Z,0.47
2023-01-23T03:12:51.421Z,0.49
2023-01-23T03:15:58.825Z,0.49
2023-01-23T03:19:05.429Z,0.49
2023-01-23T03:22:07.313Z,0.51
2023-01-23T03:25:09.408Z,0.51
2023-01-23T03:28:33.553Z,0.51
2023-01-23T03:31:35.200Z,0.50
2023-01-23T03:34:36.933Z,0.50
2023-01-23T03:37:38.531Z,0.51
2023-01-23T03:41:02.858Z,0.52
2023-01-23T03:44:04.501Z,0.54
2023-01-23T03:47:06.680Z,0.55
2023-01-23T03:50:08.898Z,0.57
2023-01-23T03:53:10.482Z,0.56
2023-01-23T03:56:12.027Z,0.56
2023-01-23T03:59:13.625Z,0.56
2023-01-23T04:02:15.184Z,0.56
2023-01-23T04:05:16.723Z,0.56
2023-01-23T04:08:18.493Z,0.55
2023-01-23T04:11:20.490Z,0.54
2023-01-23T04:14:23.816Z,0.54
2023-01-23T04:17:25.366Z,0.53
2023-01-23T04:20:26.928Z,0.53
2023-01-23T04:23:28.484Z,0.49
2023-01-23T04:26:30.220Z,0.47
2023-01-23T04:29:31.797Z,0.45
2023-01-23T04:32:33.333Z,0.46
2023-01-23T04:35:35.018Z,0.44
2023-01-23T04:38:36.846Z,0.46
2023-01-23T04:41:38.388Z,0.44
2023-01-23T04:44:39.931Z,0.43
2023-01-23T04:47:41.653Z,0.43
2023-01-23T04:50:43.273Z,0.41
2023-01-23T04:53:44.791Z,0.41
2023-01-23T04:56:46.969Z,0.40
2023-01-23T04:59:48.534Z,0.40
2023-01-23T05:02:50.617Z,0.39
2023-01-23T05:05:52.275Z,0.39
2023-01-23T05:08:53.876Z,0.41
2023-01-23T05:11:55.444Z,0.40
2023-01-23T05:14:57.053Z,0.41
2023-01-23T05:17:58.859Z,0.42
2023-01-23T05:21:00.435Z,0.42
2023-01-23T05:24:01.997Z,0.42
2023-01-23T05:27:03.612Z,0.42
2023-01-23T05:30:05.900Z,0.40
2023-01-23T05:33:07.463Z,0.39
2023-01-23T05:36:09.046Z,0.36
2023-01-23T05:39:10.579Z,0.33
2023-01-23T05:42:12.109Z,0.31
2023-01-23T05:45:13.913Z,0.34
2023-01-23T05:48:15.612Z,0.32
2023-01-23T05:51:18.673Z,0.39
2023-01-23T05:54:20.312Z,0.77
2023-01-23T05:57:22.217Z,0.84
2023-01-23T06:00:23.756Z,0.80
2023-01-23T06:03:25.379Z,0.75
2023-01-23T06:06:26.970Z,0.73
2023-01-23T06:09:29.326Z,0.70
2023-01-23T06:12:30.876Z,0.66
2023-01-23T06:15:32.788Z,0.64
2023-01-23T06:18:34.374Z,0.60
2023-01-23T06:21:36.033Z,0.60
2023-01-23T06:24:37.589Z,0.60
2023-01-23T06:27:39.522Z,0.59
2023-01-23T06:30:41.159Z,0.57
2023-01-23T06:33:42.829Z,0.55
2023-01-23T06:36:44.479Z,0.53
2023-01-23T06:39:46.161Z,0.52
2023-01-23T06:42:50.942Z,0.48
2023-01-23T06:45:52.470Z,0.47
2023-01-23T06:48:54.244Z,0.45
2023-01-23T06:51:55.952Z,0.45
2023-01-23T06:54:57.498Z,0.46
2023-01-23T06:57:59.583Z,0.47
2023-01-23T07:01:09.593Z,0.44
2023-01-23T07:04:11.155Z,0.44
2023-01-23T07:07:12.715Z,0.44
2023-01-23T07:10:14.433Z,0.64
2023-01-23T07:13:15.964Z,0.65
2023-01-23T07:16:17.587Z,0.70
2023-01-23T07:19:19.188Z,0.71
2023-01-23T07:22:22.616Z,0.69
2023-01-23T07:25:25.311Z,0.65
2023-01-23T07:28:27.298Z,0.63
2023-01-23T07:31:28.858Z,0.81
2023-01-23T07:34:30.426Z,1.11
2023-01-23T07:37:32.221Z,1.14
2023-01-23T07:40:33.865Z,1.11
2023-01-23T07:43:35.406Z,1.07
2023-01-23T07:46:36.967Z,0.99
2023-01-23T07:49:38.497Z,0.90
2023-01-23T07:52:40.323Z,0.80
2023-01-23T07:55:41.911Z,0.72
2023-01-23T07:58:43.505Z,0.68
2023-01-23T08:01:45.130Z,0.66
2023-01-23T08:04:46.703Z,0.62
2023-01-23T08:07:48.326Z,0.62
2023-01-23T08:10:50.225Z,0.61
2023-01-23T08:13:52.188Z,0.59
2023-01-23T08:16:53.998Z,0.61
2023-01-23T08:19:55.694Z,0.61
2023-01-23T08:22:59.033Z,0.62
2023-01-23T08:26:03.496Z,0.60
2023-01-23T08:29:05.370Z,0.58
2023-01-23T08:32:07.095Z,0.57
2023-01-23T08:35:09.162Z,0.55
2023-01-23T08:38:11.133Z,0.55
2023-01-23T08:41:12.849Z,0.55
2023-01-23T08:44:14.429Z,0.56
2023-01-23T08:47:15.984Z,0.55
2023-01-23T08:50:17.915Z,0.53
2023-01-23T08:53:19.707Z,0.49
2023-01-23T08:56:23.364Z,0.46
2023-01-23T08:59:25.162Z,0.45
2023-01-23T09:02:26.805Z,0.44
2023-01-23T09:05:29.426Z,0.42
2023-01-23T09:08:31.025Z,0.40
2023-01-23T09:11:32.574Z,0.42
2023-01-23T09:14:34.204Z,0.42
2023-01-23T09:17:36.136Z,0.42
2023-01-23T09:20:38.522Z,0.43
2023-01-23T09:23:40.136Z,0.43
2023-01-23T09:26:43.576Z,0.44
2023-01-23T09:29:45.277Z,0.46
2023-01-23T09:32:46.816Z,0.52
2023-01-23T09:35:51.776Z,0.74
2023-01-23T09:38:53.297Z,0.82
2023-01-23T09:41:55.519Z,0.83
2023-01-23T09:45:03.464Z,0.83
2023-01-23T09:48:27.101Z,0.81
2023-01-23T09:51:37.668Z,0.75
2023-01-23T09:54:50.881Z,0.74
2023-01-23T09:57:57.693Z,0.73
2023-01-23T10:00:59.310Z,0.72
2023-01-23T10:04:02.024Z,0.69
2023-01-23T10:07:25.194Z,0.71
2023-01-23T10:10:35.801Z,0.71
2023-01-23T10:13:49.377Z,0.72
2023-01-23T10:17:07.614Z,0.75
2023-01-23T10:20:30.310Z,0.75
2023-01-23T10:23:47.048Z,0.75
2023-01-23T10:26:49.031Z,0.76
2023-01-23T10:29:57.787Z,0.79
2023-01-23T10:33:13.498Z,0.85
2023-01-23T10:36:42.091Z,0.86
2023-01-23T10:39:54.958Z,0.88
2023-01-23T10:43:02.694Z,0.91
2023-01-23T10:46:16.700Z,0.91
2023-01-23T10:49:37.669Z,0.92
2023-01-23T10:52:42.432Z,0.93
2023-01-23T10:55:45.642Z,0.94
2023-01-23T10:58:49.350Z,0.98
2023-01-23T11:02:08.906Z,1.01
2023-01-23T11:05:52.589Z,1.04
2023-01-23T11:09:01.629Z,1.03
2023-01-23T11:12:05.420Z,1.02
2023-01-23T11:15:27.519Z,1.07
2023-01-23T11:18:33.173Z,1.59
2023-01-23T11:21:54.916Z,1.72
2023-01-23T11:24:57.035Z,1.67
2023-01-23T11:28:16.924Z,1.63
2023-01-23T11:31:22.089Z,1.56
2023-01-23T11:34:29.240Z,1.51
2023-01-23T11:37:34.848Z,1.49
2023-01-23T11:40:36.528Z,1.50
2023-01-23T11:43:39.166Z,1.50
2023-01-23T11:47:18.162Z,1.51
2023-01-23T11:50:49.963Z,1.50
2023-01-23T11:54:19.514Z,1.45
2023-01-23T11:57:43.863Z,1.42
2023-01-23T12:01:11.875Z,1.35
2023-01-23T12:04:39.957Z,1.32
2023-01-23T12:07:56.315Z,1.28
2023-01-23T12:11:20.204Z,1.29
2023-01-23T12:14:33.831Z,1.31
2023-01-23T12:18:07.821Z,1.35
2023-01-23T12:21:31.897Z,1.39
2023-01-23T12:24:39.178Z,1.40
2023-01-23T12:27:49.693Z,1.45
2023-01-23T12:31:23.641Z,1.46
2023-01-23T12:34:40.580Z,1.46
2023-01-23T12:37:57.336Z,1.45
2023-01-23T12:41:13.201Z,1.42
2023-01-23T12:44:20.679Z,1.40
2023-01-23T12:47:40.762Z,1.42
2023-01-23T12:50:50.432Z,1.44
2023-01-23T12:53:57.518Z,1.45
2023-01-23T12:57:00.388Z,1.43
2023-01-23T13:00:26.948Z,1.46
2023-01-23T13:03:51.666Z,1.45
2023-01-23T13:06:57.159Z,1.43
2023-01-23T13:11:14.616Z,1.44
2023-01-23T13:14:25.562Z,1.48
2023-01-23T13:17:41.773Z,1.47
2023-01-23T13:21:16.033Z,1.47
2023-01-23T13:25:01.140Z,1.46
2023-01-23T13:28:45.008Z,1.45
2023-01-23T13:31:50.426Z,1.45
2023-01-23T13:34:52.362Z,1.43
2023-01-23T13:37:54.099Z,1.42
2023-01-23T13:41:04.707Z,1.42
2023-01-23T13:44:40.350Z,1.39
2023-01-23T14:22:46.333Z,1.44
2023-01-23T14:25:48.343Z,1.45
2023-01-23T14:29:00.598Z,1.45
2023-01-23T14:32:02.541Z,1.45
2023-01-23T14:35:19.616Z,1.42
2023-01-23T14:38:31.731Z,1.39
2023-01-23T14:41:41.365Z,1.37
2023-01-23T14:44:46.984Z,1.35
2023-01-23T14:47:59.713Z,1.34
2023-01-23T14:51:17.338Z,1.32
2023-01-23T14:54:22.929Z,1.31
2023-01-23T14:57:26.677Z,1.31
2023-01-23T15:00:29.413Z,1.29
2023-01-23T15:03:39.733Z,1.27
2023-01-23T15:06:42.410Z,1.28
2023-01-23T15:09:45.860Z,1.26
2023-01-23T15:12:57.463Z,1.24
2023-01-23T15:16:02.378Z,1.24
2023-01-23T15:19:18.815Z,1.21
2023-01-23T15:22:26.463Z,1.19
2023-01-23T15:25:33.684Z,1.17
2023-01-23T15:28:53.797Z,1.15
2023-01-23T15:31:56.719Z,1.12
2023-01-23T15:34:59.188Z,1.10
2023-01-23T15:38:05.097Z,1.48
2023-01-23T15:41:10.970Z,1.67
2023-01-23T15:44:15.132Z,1.69
2023-01-23T15:47:16.681Z,1.68
2023-01-23T15:50:18.398Z,1.66
2023-01-23T15:53:20.075Z,1.73
2023-01-23T15:56:33.635Z,1.73
2023-01-23T15:59:36.169Z,1.73
2023-01-23T16:02:47.111Z,1.73
2023-01-23T16:05:56.536Z,1.73
2023-01-23T16:09:05.205Z,1.77
2023-01-23T16:12:14.336Z,1.77
2023-01-23T16:15:18.471Z,1.78
2023-01-23T16:18:20.153Z,1.78
2023-01-23T16:21:27.995Z,1.79
2023-01-23T16:24:34.424Z,1.75
2023-01-23T16:27:36.063Z,1.71
2023-01-23T16:30:37.700Z,1.64
2023-01-23T16:33:39.271Z,1.59
2023-01-23T16:36:40.883Z,1.58
2023-01-23T16:39:44.091Z,1.56
2023-01-23T16:42:48.333Z,1.56
2023-01-23T16:45:53.203Z,1.57
2023-01-23T16:48:57.322Z,1.55
2023-01-23T16:52:01.507Z,1.52
2023-01-23T16:55:12.054Z,1.49
2023-01-23T16:58:18.959Z,1.49
2023-01-23T17:01:23.062Z,1.54
2023-01-23T17:04:24.671Z,1.55
2023-01-23T17:07:26.232Z,1.53
2023-01-23T17:10:38.018Z,1.50
2023-01-23T17:13:47.610Z,1.46
2023-01-23T17:16:50.479Z,1.42
2023-01-23T17:19:52.553Z,1.41
2023-01-23T17:22:54.928Z,1.42
2023-01-23T17:26:01.345Z,1.43
2023-01-23T17:29:03.730Z,1.40
2023-01-23T17:32:07.029Z,1.36
2023-01-23T17:35:17.385Z,1.32
2023-01-23T17:38:24.032Z,1.28
2023-01-23T17:41:25.690Z,1.25
2023-01-23T17:44:27.225Z,1.26
2023-01-23T17:47:30.230Z,1.29
2023-01-23T17:50:31.836Z,1.29
2023-01-23T17:53:33.481Z,1.32
2023-01-23T17:56:35.187Z,1.33
2023-01-23T17:59:36.759Z,1.35
2023-01-23T18:02:39.872Z,1.39
2023-01-23T18:05:41.451Z,1.39
2023-01-23T18:08:43.532Z,1.42
2023-01-23T18:11:52.114Z,1.44
2023-01-23T18:15:03.762Z,1.43
2023-01-23T18:18:13.830Z,1.46
2023-01-23T18:21:17.982Z,1.45
2023-01-23T18:24:32.587Z,1.44
2023-01-23T18:27:38.782Z,1.46
2023-01-23T18:30:55.588Z,1.46
2023-01-23T18:34:02.744Z,1.45
2023-01-23T18:37:24.083Z,1.44
2023-01-23T18:40:54.245Z,1.44
2023-01-23T18:44:04.963Z,1.39
2023-01-23T18:47:14.199Z,1.36
2023-01-23T18:50:18.141Z,1.42
2023-01-23T18:53:33.598Z,1.46
2023-01-23T18:56:47.127Z,1.48
2023-01-23T18:59:57.726Z,1.53
2023-01-23T19:03:10.830Z,1.56
2023-01-23T19:06:22.301Z,1.58
2023-01-23T19:09:24.536Z,1.59
2023-01-23T19:12:43.584Z,1.57
2023-01-23T19:16:06.555Z,1.54
2023-01-23T19:19:20.578Z,1.49
2023-01-23T19:22:23.241Z,1.43
2023-01-23T19:25:25.297Z,1.39
2023-01-23T19:28:27.095Z,1.37
2023-01-23T19:31:34.453Z,1.38
2023-01-23T19:34:36.040Z,1.37
2023-01-23T19:37:40.038Z,1.36
2023-01-23T19:40:42.473Z,1.35
2023-01-23T19:43:44.025Z,1.33
2023-01-23T19:46:46.663Z,1.33
2023-01-23T19:49:48.681Z,1.34
2023-01-23T19:52:52.451Z,1.33
2023-01-23T19:55:56.264Z,1.30
2023-01-23T19:58:57.848Z,1.26
2023-01-23T20:01:59.409Z,1.23
2023-01-23T20:05:00.935Z,1.22
2023-01-23T20:08:02.506Z,1.27
2023-01-23T20:11:04.363Z,1.36
2023-01-23T20:14:06.041Z,1.41
2023-01-23T20:17:07.598Z,1.44
2023-01-23T20:20:11.339Z,1.42
2023-01-23T20:23:13.002Z,1.40
2023-01-23T20:26:16.563Z,1.41
2023-01-23T20:29:18.093Z,1.41
2023-01-23T20:32:19.749Z,1.39
2023-01-23T20:35:21.302Z,1.44
2023-01-23T20:38:22.920Z,1.45
2023-01-23T20:41:24.503Z,1.48
2023-01-23T20:44:26.077Z,1.45
2023-01-23T20:47:27.651Z,1.44
2023-01-23T20:50:29.231Z,1.42
2023-01-23T20:53:30.940Z,1.41
2023-01-23T20:56:32.612Z,1.40
2023-01-23T20:59:34.156Z,1.41
2023-01-23T21:02:35.686Z,1.44
2023-01-23T21:05:37.325Z,1.49
2023-01-23T21:08:39.389Z,1.50
2023-01-23T21:11:40.934Z,1.56
2023-01-23T21:14:42.540Z,1.63
2023-01-23T21:17:44.532Z,1.68
2023-01-23T21:20:46.049Z,1.74
2023-01-23T21:23:51.409Z,1.78
2023-01-23T21:26:53.030Z,1.78
2023-01-23T21:29:54.598Z,1.75
2023-01-23T21:32:56.122Z,1.72
2023-01-23T21:35:57.673Z,1.70
2023-01-23T21:38:59.344Z,1.69
2023-01-23T21:42:00.896Z,1.71
2023-01-23T21:45:02.546Z,1.74
2023-01-23T21:48:04.679Z,1.84
2023-01-23T21:51:14.580Z,1.85
2023-01-23T21:54:16.181Z,1.83
2023-01-23T21:57:17.710Z,1.80
2023-01-23T22:00:38.245Z,1.76
2023-01-23T22:03:39.782Z,2.10
2023-01-23T22:06:43.699Z,2.61
2023-01-23T22:09:45.258Z,2.89
2023-01-23T22:12:46.776Z,2.93
2023-01-23T22:15:48.344Z,2.86
2023-01-23T22:18:49.966Z,2.72
2023-01-23T22:21:51.662Z,2.60
2023-01-23T22:24:53.193Z,2.49
2023-01-23T22:27:54.748Z,2.40
2023-01-23T22:30:56.600Z,2.37
2023-01-23T22:33:58.321Z,2.36
2023-01-23T22:36:59.973Z,2.33
2023-01-23T22:40:01.705Z,2.22
2023-01-23T22:43:05.305Z,2.11
2023-01-23T22:46:13.716Z,2.06
2023-01-23T22:49:16.006Z,1.97
2023-01-23T22:52:17.823Z,1.89
2023-01-23T22:55:19.947Z,1.82
2023-01-23T22:58:22.841Z,1.75
2023-01-23T23:01:27.191Z,1.71
2023-01-23T23:04:28.894Z,1.70
2023-01-23T23:07:30.632Z,1.67
2023-01-23T23:10:32.215Z,1.63
2023-01-23T23:13:35.766Z,1.64
2023-01-23T23:16:37.820Z,1.79
2023-01-23T23:19:39.701Z,1.82
2023-01-23T23:22:42.888Z,1.82
2023-01-23T23:25:44.495Z,1.78
2023-01-23T23:28:46.051Z,1.74
2023-01-23T23:31:51.522Z,1.71
2023-01-23T23:34:53.406Z,1.67
2023-01-23T23:37:54.930Z,1.64
2023-01-23T23:41:01.267Z,1.63
2023-01-23T23:44:03.473Z,1.60
2023-01-23T23:47:05.128Z,1.59
2023-01-23T23:50:07.465Z,1.57
2023-01-23T23:53:09.205Z,1.50
2023-01-23T23:56:18.885Z,1.48
2023-01-23T23:59:20.445Z,1.43
